23/10 a 2/11 - Tren de vaguadas; templado a cálido e inestable [calor extremo N y TS severas C y N]

Avatar de Usuario
Maximus Rosario
Mensajes: 1844
Registrado: Jue Sep 20, 2018 8:54 pm
Ubicación: Rosario

Re: 23/10 a 2/11 - Tren de vaguadas; templado a algo cálido, húmedo e inestable

Mensaje por Maximus Rosario » Jue Oct 24, 2019 4:53 pm

Imagen
Nena, vi un rayo... vuelvo en unas horas...
Te duele el calor y la humedad? Adermicina.
EMA Villa Gdor. Gálvez
EMA Villa Gdor. Gálvez Cooperativa

Avatar de Usuario
tomasmi1996
Mensajes: 1074
Registrado: Dom Abr 24, 2016 4:30 pm
Ubicación: Villa Celina, La Matanza, Buenos Aires

Re: 23/10 a 2/11 - Tren de vaguadas; templado a algo cálido, húmedo e inestable

Mensaje por tomasmi1996 » Jue Oct 24, 2019 5:05 pm

Marg Tor escribió:Imagen
Nahh mirá la celda qué está al Este de La Toma
EMA Ortúzar
http://www.twitter.com/SMN_OCBA

El Qué no Conoce a Dios a Cualquier Santo le Reza

Cada Vez Qué Alguien Dice RESOLANA, un Gatito se Suicida

Avatar de Usuario
Diecha
Mensajes: 14735
Registrado: Jue Ago 25, 2011 9:31 pm
Ubicación: Lomas de Zamora

Re: 23/10 a 2/11 - Tren de vaguadas; templado a algo cálido, húmedo e inestable

Mensaje por Diecha » Jue Oct 24, 2019 5:19 pm

- Río Cuarto 17 hs: SAOC 242000Z 36018KT 9999 FEW030 FEW040CB 27/10 Q1008 RMK ESTIMATED WIND

Imagen
Imagen
Imagen

Avatar de Usuario
Diecha
Mensajes: 14735
Registrado: Jue Ago 25, 2011 9:31 pm
Ubicación: Lomas de Zamora

Re: 23/10 a 2/11 - Tren de vaguadas; templado a algo cálido, húmedo e inestable

Mensaje por Diecha » Jue Oct 24, 2019 5:34 pm

- San Rafael 17 hs: SAMR 242000Z 11011KT 9999 SCT035 FEW040CB 28/02 Q1011
- San Luis 17 hs: SAOU 242000Z 29008KT 9999 SCT040 FEW045CB 30/08 Q1010

Imagen

Avatar de Usuario
Ale de Castelar
Mensajes: 28126
Registrado: Sab Mar 03, 2012 12:25 pm
Ubicación: Caballito

Re: 23/10 a 2/11 - Tren de vaguadas; templado a algo cálido, húmedo e inestable

Mensaje por Ale de Castelar » Jue Oct 24, 2019 6:09 pm

Rio Cuarto


Avatar de Usuario
Fedex
Mensajes: 3147
Registrado: Jue Jul 17, 2014 3:30 pm
Ubicación: Villa Ballester, San Martin, Buenos Aires
Contactar:

Re: 23/10 a 2/11 - Tren de vaguadas; templado a algo cálido, húmedo e inestable

Mensaje por Fedex » Jue Oct 24, 2019 6:13 pm

Algo de granizo en la zona

Cada vez que se superan los 24°C de Td, un gatito renace.

#MuerteALasLineas

El corazón late y es suficiente

Avatar de Usuario
Ale de Castelar
Mensajes: 28126
Registrado: Sab Mar 03, 2012 12:25 pm
Ubicación: Caballito

Re: 23/10 a 2/11 - Tren de vaguadas; templado a algo cálido, húmedo e inestable

Mensaje por Ale de Castelar » Jue Oct 24, 2019 6:19 pm

Villegas, PBA


Avatar de Usuario
Ale de Castelar
Mensajes: 28126
Registrado: Sab Mar 03, 2012 12:25 pm
Ubicación: Caballito

Re: 23/10 a 2/11 - Tren de vaguadas; templado a algo cálido, húmedo e inestable

Mensaje por Ale de Castelar » Jue Oct 24, 2019 6:26 pm

Villegas
ImagenImagenImagenImagenImagenImagenImagen

Enviado desde mi BLL-L23 mediante Tapatalk

Avatar de Usuario
juan_aae
Mensajes: 197
Registrado: Mié Sep 03, 2014 10:32 pm
Ubicación: Río Cuarto, Córdoba
Contactar:

Re: 23/10 a 2/11 - Tren de vaguadas; templado a algo cálido, húmedo e inestable

Mensaje por juan_aae » Jue Oct 24, 2019 6:28 pm

Tormenta en Río Cuarto, provincia de Córdoba. Fotos propias.

Imagen
Imagen
Imagen
Imagen
Imagen
Imagen
Imagen
Me pidió tiempo. Le dije "Cubierto con tormenta. 22°C"

Avatar de Usuario
Diecha
Mensajes: 14735
Registrado: Jue Ago 25, 2011 9:31 pm
Ubicación: Lomas de Zamora

Re: 23/10 a 2/11 - Tren de vaguadas; templado a algo cálido, húmedo e inestable

Mensaje por Diecha » Jue Oct 24, 2019 6:40 pm

Imagen

Imagen
Spoiler
Mostrar
Imagen
Imagen
Imagen
Imagen
Imagen
Imagen
Imagen
Imagen
Imagen
Última edición por Diecha el Jue Oct 24, 2019 7:52 pm, editado 1 vez en total.

Responder